NCAR-RAP Real-Time Weather Data

Output produced by METARs form (08 May 2021  01:26 UTC)
found at http://weather.rap.ucar.edu/surface/
 
KHSI 080053Z AUTO 11009G19KT 10SM CLR 18/06 A2993 RMK AO2 SLP128 T01830056
KHSI 072353Z AUTO 11010G19KT 10SM CLR 20/07 A2993 RMK AO2 SLP131 T02000067 10211 20167 56021
KHSI 072253Z AUTO 14010KT 10SM CLR 21/07 A2995 RMK AO2 SLP138 T02060067
KHSI 072153Z AUTO 15008G17KT 10SM CLR 21/07 A2997 RMK AO2 SLP145 T02060072
KHSI 072053Z AUTO 11009G18KT 10SM CLR 21/07 A3000 RMK AO2 SLP155 T02060067 56029
KHSI 071953Z AUTO 10011G18KT 10SM CLR 20/07 A3002 RMK AO2 SLP162 T02000067
KHSI 071853Z AUTO 10009G16KT 10SM BKN055 19/07 A3005 RMK AO2 SLP170 T01940067
KHSI 071753Z AUTO 13011KT 10SM OVC050 17/05 A3009 RMK AO2 SLP186 T01670050 10167 20083 58017
KHSI 071653Z AUTO 07007KT 10SM OVC055 16/05 A3012 RMK AO2 SLP196 T01560050
KHSI 071553Z AUTO 07005KT 10SM OVC055 14/06 A3012 RMK AO2 SLP198 T01390061
KHSI 071453Z AUTO 02004KT 10SM OVC070 14/07 A3014 RMK AO2 SLP204 T01390067 58001
KHSI 071353Z AUTO 32003KT 10SM OVC070 14/06 A3014 RMK AO2 SLP204 T01390061
KHSI 071253Z AUTO 00000KT 10SM SCT070 11/06 A3015 RMK AO2 SLP206 T01110061
KHSI 071153Z AUTO 28003KT 10SM FEW070 08/03 A3014 RMK AO2 SLP205 T00830033 10111 20067 51002
KHSI 071053Z AUTO 28003KT 10SM CLR 08/03 A3014 RMK AO2 SLP204 T00830028